La Clotilde, Argentina
Current Conditions -  °F | °C
As of 11:00 AM on Friday 28 Nov 2014 (Local Time) from SARE Reporting Station
Clear Clear  
Wind Chill: 86°   Ceiling: Unl
Heat Index: 89°   Visibility: 6mi
Dew Point: 68°   Wind: 6mph
Humidity: 55%   Direction: 70°ENE
Pressure: 29.88"   Gusts: NA
Location:  27.17°S, 60.64°W
Report Text: SARE 281400Z 07005KT CAVOK 30/20 Q1012
Loading
Personal Weather Stations






























Interactive Weather Map New forecast layout! Learn more

10-Day Weather Forecast

Advertisements
Track Severe Weather on mobile